createdAt,value
2019-01-27T00:00:48.074Z,99386.76
2019-01-27T00:03:18.186Z,99390.15
2019-01-27T00:05:48.294Z,99393.17
2019-01-27T00:08:18.323Z,99390.06
2019-01-27T00:10:48.353Z,99385.07
2019-01-27T00:13:18.312Z,99381.62
2019-01-27T00:15:48.530Z,99388.91
2019-01-27T00:18:18.746Z,99388.50
2019-01-27T00:20:48.768Z,99384.67
2019-01-27T00:23:18.685Z,99380.34
2019-01-27T00:25:48.657Z,99379.92
2019-01-27T00:28:18.680Z,99377.38
2019-01-27T00:30:48.585Z,99373.12
2019-01-27T00:33:18.747Z,99369.30
2019-01-27T00:35:48.745Z,99359.45
2019-01-27T00:38:18.948Z,99355.19
2019-01-27T00:40:48.838Z,99352.61
2019-01-27T00:43:18.766Z,99353.02
2019-01-27T00:45:49.135Z,99348.36
2019-01-27T00:48:19.289Z,99345.37
2019-01-27T00:50:49.302Z,99336.81
2019-01-27T00:53:19.211Z,99342.22
2019-01-27T00:55:49.427Z,99337.97
2019-01-27T00:58:19.442Z,99334.20
2019-01-27T01:00:49.422Z,99332.14
2019-01-27T01:03:19.452Z,99340.92
2019-01-27T01:05:49.600Z,99326.64
2019-01-27T01:08:19.965Z,99322.69
2019-01-27T01:10:49.833Z,99323.39
2019-01-27T01:13:20.010Z,99312.77
2019-01-27T01:15:50.023Z,99313.25
2019-01-27T01:18:20.422Z,99306.91
2019-01-27T01:20:50.414Z,99297.13
2019-01-27T01:23:20.742Z,99295.84
2019-01-27T01:25:50.994Z,99298.38
2019-01-27T01:28:21.045Z,99288.56
2019-01-27T01:30:51.190Z,99291.97
2019-01-27T01:33:21.119Z,99291.13
2019-01-27T01:35:51.170Z,99291.52
2019-01-27T01:38:21.812Z,99285.14
2019-01-27T01:40:52.041Z,99287.28
2019-01-27T01:43:21.940Z,99273.14
2019-01-27T01:45:52.616Z,99269.27
2019-01-27T01:48:22.652Z,99252.59
2019-01-27T01:50:52.787Z,99250.12
2019-01-27T01:53:22.747Z,99245.45
2019-01-27T01:55:52.726Z,99239.06
2019-01-27T01:58:22.685Z,99233.91
2019-01-27T02:00:52.624Z,99226.66
2019-01-27T02:03:22.913Z,99228.80
2019-01-27T02:05:52.844Z,99215.16
2019-01-27T02:08:22.868Z,99218.55
2019-01-27T02:10:52.834Z,99215.16
2019-01-27T02:13:22.745Z,99206.61
2019-01-27T02:16:10.611Z,99200.64
2019-01-27T02:18:41.544Z,99194.67
2019-01-27T02:21:11.591Z,99195.11
2019-01-27T02:23:41.654Z,99185.27
2019-01-27T02:26:11.983Z,99186.13
2019-01-27T02:28:42.360Z,99175.02
2019-01-27T02:31:12.325Z,99164.78
2019-01-27T02:33:42.268Z,99165.62
2019-01-27T02:36:12.178Z,99163.50
2019-01-27T02:38:42.210Z,99160.52
2019-01-27T02:41:12.459Z,99151.99
2019-01-27T02:43:42.408Z,99145.19
2019-01-27T02:46:12.338Z,99147.73
2019-01-27T02:48:42.717Z,99140.48
2019-01-27T02:51:12.602Z,99135.76
2019-01-27T02:53:42.960Z,99130.64
2019-01-27T02:56:12.980Z,99119.52
2019-01-27T02:58:42.965Z,99111.44
2019-01-27T03:01:13.320Z,99103.32
2019-01-27T03:03:43.441Z,99104.64
2019-01-27T03:06:36.987Z,99095.69
2019-01-27T03:09:13.738Z,99087.98
2019-01-27T03:11:52.402Z,99091.84
2019-01-27T03:14:23.017Z,99083.75
2019-01-27T03:16:54.282Z,99077.30
2019-01-27T03:19:24.543Z,99076.86
2019-01-27T03:21:54.860Z,99075.20
2019-01-27T03:24:24.839Z,99071.76
2019-01-27T03:26:55.388Z,99068.34
2019-01-27T03:29:25.496Z,99068.77
2019-01-27T03:31:55.944Z,99071.33
2019-01-27T03:34:26.022Z,99064.91
2019-01-27T03:36:56.328Z,99061.08
2019-01-27T03:39:26.217Z,99056.42
2019-01-27T03:41:56.381Z,99059.84
2019-01-27T03:44:26.437Z,99052.12
2019-01-27T03:46:56.374Z,99046.94
2019-01-27T03:49:26.475Z,99035.48
2019-01-27T03:51:56.768Z,99033.30
2019-01-27T03:54:26.692Z,99023.47
2019-01-27T03:56:56.582Z,99023.89
2019-01-27T03:59:26.486Z,99016.24
2019-01-27T04:01:56.397Z,99012.02
2019-01-27T04:04:26.500Z,99009.52
2019-01-27T04:06:56.468Z,99004.75
2019-01-27T04:09:26.442Z,99004.77
2019-01-27T04:11:56.347Z,99000.53
2019-01-27T04:14:26.520Z,98992.42
2019-01-27T04:16:56.886Z,98998.00
2019-01-27T04:19:26.987Z,98981.75
2019-01-27T04:21:57.187Z,98983.05
2019-01-27T04:24:27.553Z,98983.08
2019-01-27T04:26:57.464Z,98976.27
2019-01-27T04:29:27.339Z,98966.94
2019-01-27T04:31:57.359Z,98965.59
2019-01-27T04:34:27.398Z,98965.17
2019-01-27T04:36:57.282Z,98961.75
2019-01-27T04:39:27.194Z,98956.17
2019-01-27T04:41:57.097Z,98951.95
2019-01-27T04:44:27.228Z,98955.81
2019-01-27T04:46:57.161Z,98954.95
2019-01-27T04:49:27.034Z,98946.39
2019-01-27T04:51:57.263Z,98947.25
2019-01-27T04:54:27.232Z,98935.75
2019-01-27T04:56:57.201Z,98938.29
2019-01-27T04:59:27.107Z,98934.45
2019-01-27T05:01:57.053Z,98924.21
2019-01-27T05:04:33.520Z,98928.44
2019-01-27T05:07:03.529Z,98925.03
2019-01-27T05:09:33.627Z,98919.11
2019-01-27T05:12:03.988Z,98918.67
2019-01-27T05:14:33.888Z,98916.13
2019-01-27T05:17:04.179Z,98916.97
2019-01-27T05:19:34.050Z,98904.63
2019-01-27T05:22:04.082Z,98905.88
2019-01-27T05:24:33.964Z,98897.78
2019-01-27T05:27:03.963Z,98896.52
2019-01-27T05:29:33.826Z,98887.55
2019-01-27T05:32:04.163Z,98890.95
2019-01-27T05:34:34.052Z,98887.58
2019-01-27T05:37:03.978Z,98888.45
2019-01-27T05:39:34.075Z,98871.34
2019-01-27T05:42:04.380Z,98866.19
2019-01-27T05:44:34.261Z,98867.91
2019-01-27T05:47:04.159Z,98863.23
2019-01-27T05:49:34.056Z,98865.81
2019-01-27T05:52:04.416Z,98864.52
2019-01-27T05:54:34.293Z,98849.16
2019-01-27T05:57:04.184Z,98854.69
2019-01-27T05:59:34.402Z,98853.01
2019-01-27T06:02:04.703Z,98864.95
2019-01-27T06:04:34.597Z,98844.89
2019-01-27T06:07:04.669Z,98848.72
2019-01-27T06:09:34.573Z,98838.48
2019-01-27T06:12:04.661Z,98838.92
2019-01-27T06:14:34.569Z,98837.25
2019-01-27T06:17:04.795Z,98825.69
2019-01-27T06:19:34.683Z,98817.58
2019-01-27T06:22:04.747Z,98818.88
2019-01-27T06:24:34.623Z,98818.50
2019-01-27T06:27:04.787Z,98820.63
2019-01-27T06:29:34.711Z,98813.78
2019-01-27T06:32:04.686Z,98802.29
2019-01-27T06:34:34.563Z,98798.98
2019-01-27T06:37:04.490Z,98798.90
2019-01-27T06:39:34.470Z,98799.28
2019-01-27T06:42:04.420Z,98795.89
2019-01-27T06:44:34.313Z,98791.61
2019-01-27T06:47:04.527Z,98797.53
2019-01-27T06:49:34.630Z,98798.41
2019-01-27T06:52:04.668Z,98789.06
2019-01-27T06:54:35.090Z,98791.98
2019-01-27T06:57:05.490Z,98791.11
2019-01-27T06:59:49.265Z,98786.48
2019-01-27T07:02:29.554Z,98780.07
2019-01-27T07:05:05.643Z,98778.34
2019-01-27T07:07:53.234Z,98776.63
2019-01-27T07:10:41.164Z,98774.33
2019-01-27T07:13:28.416Z,98761.36
2019-01-27T07:16:17.565Z,98764.23
2019-01-27T07:19:04.225Z,98763.45
2019-01-27T07:21:41.598Z,98761.94
2019-01-27T07:24:25.146Z,98763.84
2019-01-27T07:27:05.756Z,98760.00
2019-01-27T07:29:57.691Z,98753.59
2019-01-27T07:32:44.568Z,98758.22
2019-01-27T07:35:29.399Z,98753.48
2019-01-27T07:38:06.916Z,98750.58
2019-01-27T07:40:43.508Z,98739.81
2019-01-27T07:43:28.969Z,98743.66
2019-01-27T07:46:20.810Z,98740.61
2019-01-27T07:49:02.798Z,98739.84
2019-01-27T07:52:06.763Z,98734.59
2019-01-27T07:54:58.704Z,98731.20
2019-01-27T07:57:50.703Z,98725.66
2019-01-27T08:00:41.051Z,98726.94
2019-01-27T08:03:48.183Z,98715.79
2019-01-27T08:06:43.688Z,98711.58
2019-01-27T08:09:31.811Z,98720.20
2019-01-27T08:12:15.639Z,98713.34
2019-01-27T08:14:56.382Z,98716.06
2019-01-27T08:17:39.881Z,98708.66
2019-01-27T08:20:23.917Z,98706.13
2019-01-27T08:23:01.210Z,98712.45
2019-01-27T08:25:59.678Z,98704.70
2019-01-27T08:28:55.313Z,98701.98
2019-01-27T08:31:44.090Z,98688.00
2019-01-27T08:34:36.343Z,98688.74
2019-01-27T08:37:14.776Z,98690.77
2019-01-27T08:39:52.527Z,98686.48
2019-01-27T08:42:35.655Z,98685.09
2019-01-27T08:45:28.672Z,98684.72
2019-01-27T08:48:01.313Z,98675.20
2019-01-27T08:50:30.470Z,98683.88
2019-01-27T08:53:00.465Z,98684.69
2019-01-27T08:55:30.358Z,98687.33
2019-01-27T08:58:03.307Z,98684.72
2019-01-27T09:00:38.005Z,98688.20
2019-01-27T09:03:13.645Z,98672.86
2019-01-27T09:05:51.672Z,98671.69
2019-01-27T09:08:26.327Z,98669.52
2019-01-27T09:11:14.084Z,98651.84
2019-01-27T09:13:59.421Z,98655.20
2019-01-27T09:16:49.567Z,98655.25
2019-01-27T09:19:28.591Z,98641.45
2019-01-27T09:22:10.307Z,98638.73
2019-01-27T09:24:58.121Z,98642.05
2019-01-27T09:27:33.341Z,98634.70
2019-01-27T09:30:25.198Z,98636.02
2019-01-27T09:33:03.477Z,98635.94
2019-01-27T09:35:54.346Z,98635.23
2019-01-27T09:38:42.009Z,98635.63
2019-01-27T09:41:18.542Z,98643.77
2019-01-27T09:44:13.157Z,98625.02
2019-01-27T09:47:07.381Z,98637.27
2019-01-27T09:50:11.367Z,98621.43
2019-01-27T09:53:04.261Z,98628.44
2019-01-27T09:55:53.247Z,98624.05
2019-01-27T09:58:30.716Z,98620.52
2019-01-27T10:01:09.866Z,98622.93
2019-01-27T10:03:59.274Z,98620.48
2019-01-27T10:06:39.616Z,98614.40
2019-01-27T10:09:30.542Z,98613.19
2019-01-27T10:12:09.579Z,98606.70
2019-01-27T10:14:46.174Z,98608.56
2019-01-27T10:17:30.152Z,98603.70
2019-01-27T10:20:17.733Z,98601.51
2019-01-27T10:23:10.351Z,98602.58
2019-01-27T10:25:50.225Z,98594.22
2019-01-27T10:28:28.025Z,98583.77
2019-01-27T10:31:07.255Z,98578.83
2019-01-27T10:33:51.068Z,98569.83
2019-01-27T10:36:29.723Z,98570.50
2019-01-27T10:39:08.308Z,98571.48
2019-01-27T10:41:46.469Z,98578.86
2019-01-27T10:44:33.155Z,98574.13
2019-01-27T10:47:09.566Z,98572.32
2019-01-27T10:49:48.077Z,98565.38
2019-01-27T10:52:37.500Z,98566.55
2019-01-27T10:55:15.334Z,98563.51
2019-01-27T10:57:56.449Z,98555.89
2019-01-27T11:00:48.928Z,98547.67
2019-01-27T11:03:31.822Z,98543.52
2019-01-27T11:06:23.956Z,98550.88
2019-01-27T11:09:16.435Z,98548.51
2019-01-27T11:12:09.216Z,98536.44
2019-01-27T11:15:04.472Z,98527.40
2019-01-27T11:17:51.868Z,98537.92
2019-01-27T11:20:50.235Z,98533.17
2019-01-27T11:23:30.412Z,98527.00
2019-01-27T11:26:18.144Z,98527.47
2019-01-27T11:29:05.965Z,98512.99
2019-01-27T11:31:56.791Z,98507.76
2019-01-27T11:34:44.491Z,98513.75
2019-01-27T11:37:29.872Z,98501.56
2019-01-27T11:40:10.156Z,98501.19
2019-01-27T11:42:57.344Z,98493.64
2019-01-27T11:45:39.864Z,98492.06
2019-01-27T11:48:14.369Z,98490.84
2019-01-27T11:50:48.911Z,98480.57
2019-01-27T11:53:19.079Z,98472.98
2019-01-27T11:55:49.075Z,98481.11
2019-01-27T11:58:19.104Z,98477.72
2019-01-27T12:00:53.178Z,98474.61
2019-01-27T12:03:23.427Z,98467.40
2019-01-27T12:05:53.800Z,98461.81
2019-01-27T12:08:23.755Z,98465.54
2019-01-27T12:10:53.857Z,98459.84
2019-01-27T12:13:24.864Z,98455.75
2019-01-27T12:15:54.754Z,98447.69
2019-01-27T12:18:24.953Z,98452.84
2019-01-27T12:20:55.076Z,98449.81
2019-01-27T12:23:25.092Z,98459.30
2019-01-27T12:25:55.140Z,98457.41
2019-01-27T12:28:25.530Z,98455.23
2019-01-27T12:30:55.677Z,98448.18
2019-01-27T12:33:25.547Z,98454.99
2019-01-27T12:35:56.291Z,98449.03
2019-01-27T12:38:26.399Z,98443.69
2019-01-27T12:40:56.581Z,98436.20
2019-01-27T12:43:27.089Z,98444.41
2019-01-27T12:45:57.039Z,98436.12
2019-01-27T12:48:28.671Z,98431.39
2019-01-27T12:51:08.263Z,98429.95
2019-01-27T12:53:38.175Z,98434.55
2019-01-27T12:56:08.264Z,98426.41
2019-01-27T12:58:38.160Z,98416.05
2019-01-27T13:01:13.466Z,98422.48
2019-01-27T13:03:43.416Z,98415.80
2019-01-27T13:06:13.453Z,98423.63
2019-01-27T13:08:43.476Z,98421.50
2019-01-27T13:11:13.652Z,98406.88
2019-01-27T13:13:43.787Z,98416.13
2019-01-27T13:16:13.742Z,98408.71
2019-01-27T13:18:43.646Z,98408.31
2019-01-27T13:21:13.512Z,98414.13
2019-01-27T13:23:43.489Z,98407.82
2019-01-27T13:26:13.430Z,98408.20
2019-01-27T13:28:43.739Z,98404.48
2019-01-27T13:31:13.646Z,98401.54
2019-01-27T13:33:43.825Z,98400.41
2019-01-27T13:36:13.770Z,98403.50
2019-01-27T13:38:50.822Z,98396.98
2019-01-27T13:41:16.052Z,98392.99
2019-01-27T13:43:45.925Z,98389.84
2019-01-27T13:46:16.029Z,98391.02
2019-01-27T13:48:45.903Z,98383.16
2019-01-27T13:51:16.143Z,98380.77
2019-01-27T13:53:46.253Z,98373.13
2019-01-27T13:56:16.161Z,98375.22
2019-01-27T13:58:46.170Z,98372.58
2019-01-27T14:01:16.729Z,98365.17
2019-01-27T14:03:46.923Z,98367.30
2019-01-27T14:06:17.048Z,98367.48
2019-01-27T14:08:47.007Z,98353.62
2019-01-27T14:11:17.033Z,98359.52
2019-01-27T14:13:46.926Z,98360.09
2019-01-27T14:16:16.983Z,98354.48
2019-01-27T14:18:47.004Z,98351.30
2019-01-27T14:21:16.912Z,98345.27
2019-01-27T14:23:47.344Z,98339.21
2019-01-27T14:26:17.234Z,98341.80
2019-01-27T14:28:47.527Z,98350.48
2019-01-27T14:31:17.483Z,98343.61
2019-01-27T14:33:47.687Z,98342.20
2019-01-27T14:36:17.631Z,98342.00
2019-01-27T14:38:47.662Z,98335.09
2019-01-27T14:41:17.678Z,98331.97
2019-01-27T14:43:47.830Z,98324.23
2019-01-27T14:46:17.697Z,98322.53
2019-01-27T14:48:47.582Z,98329.75
2019-01-27T14:51:17.793Z,98327.01
2019-01-27T14:53:48.027Z,98332.26
2019-01-27T14:56:18.044Z,98330.94
2019-01-27T14:58:48.009Z,98327.67
2019-01-27T15:01:18.184Z,98331.20
2019-01-27T15:03:48.117Z,98321.91
2019-01-27T15:06:18.029Z,98334.05
2019-01-27T15:08:48.340Z,98332.26
2019-01-27T15:11:18.332Z,98328.81
2019-01-27T15:13:48.537Z,98329.63
2019-01-27T15:16:18.569Z,98325.91
2019-01-27T15:18:48.490Z,98330.73
2019-01-27T15:21:23.950Z,98331.66
2019-01-27T15:23:54.138Z,98336.89
2019-01-27T15:26:24.067Z,98333.23
2019-01-27T15:28:54.154Z,98334.50
2019-01-27T15:31:24.045Z,98329.31
2019-01-27T15:33:53.923Z,98337.27
2019-01-27T15:36:23.937Z,98330.45
2019-01-27T15:38:53.835Z,98332.94
2019-01-27T15:41:23.735Z,98335.80
2019-01-27T15:43:53.640Z,98332.25
2019-01-27T15:46:23.597Z,98332.16
2019-01-27T15:48:53.907Z,98333.70
2019-01-27T15:51:24.011Z,98323.87
2019-01-27T15:53:53.896Z,98321.38
2019-01-27T15:56:23.804Z,98328.79
2019-01-27T15:58:53.676Z,98326.59
2019-01-27T16:01:23.929Z,98322.91
2019-01-27T16:03:53.804Z,98326.37
2019-01-27T16:06:23.727Z,98320.58
2019-01-27T16:08:53.837Z,98319.34
2019-01-27T16:11:24.038Z,98325.55
2019-01-27T16:13:54.059Z,98323.20
2019-01-27T16:16:23.953Z,98328.36
2019-01-27T16:18:58.874Z,98320.93
2019-01-27T16:21:25.490Z,98334.26
2019-01-27T16:23:57.940Z,98332.44
2019-01-27T16:26:27.915Z,98328.86
2019-01-27T16:28:58.132Z,98326.30
2019-01-27T16:31:43.866Z,98331.28
2019-01-27T16:34:18.868Z,98328.05
2019-01-27T16:36:48.751Z,98320.41
2019-01-27T16:39:18.742Z,98328.50
2019-01-27T16:41:48.716Z,98325.72
2019-01-27T16:44:18.703Z,98325.60
2019-01-27T16:46:48.630Z,98322.09
2019-01-27T16:49:19.492Z,98319.05
2019-01-27T16:51:50.016Z,98323.29
2019-01-27T16:54:20.639Z,98325.70
2019-01-27T16:56:50.534Z,98321.47
2019-01-27T16:59:20.744Z,98322.45
2019-01-27T17:01:50.663Z,98315.96
2019-01-27T17:04:20.563Z,98312.78
2019-01-27T17:06:51.111Z,98316.48
2019-01-27T17:09:21.235Z,98316.57
2019-01-27T17:11:51.805Z,98314.08
2019-01-27T17:14:21.746Z,98314.14
2019-01-27T17:16:51.740Z,98312.62
2019-01-27T17:19:22.868Z,98315.96
2019-01-27T17:21:53.048Z,98312.11
2019-01-27T17:24:23.918Z,98310.67
2019-01-27T17:26:54.292Z,98307.77
2019-01-27T17:29:24.236Z,98306.30
2019-01-27T17:31:54.159Z,98308.12
2019-01-27T17:34:24.123Z,98314.00
2019-01-27T17:36:54.025Z,98312.12
2019-01-27T17:39:23.955Z,98315.89
2019-01-27T17:41:53.846Z,98309.09
2019-01-27T17:44:23.941Z,98305.80
2019-01-27T17:46:55.032Z,98306.30
2019-01-27T17:49:24.939Z,98314.68
2019-01-27T17:51:55.217Z,98308.50
2019-01-27T17:54:26.324Z,98315.38
2019-01-27T17:57:03.360Z,98305.56
2019-01-27T17:59:38.633Z,98315.21
2019-01-27T18:02:25.694Z,98310.00
2019-01-27T18:05:04.778Z,98309.94
2019-01-27T18:07:54.821Z,98310.30
2019-01-27T18:10:35.972Z,98307.65
2019-01-27T18:13:10.672Z,98304.94
2019-01-27T18:15:40.755Z,98305.62
2019-01-27T18:18:10.848Z,98311.61
2019-01-27T18:20:41.096Z,98311.30
2019-01-27T18:23:11.063Z,98308.58
2019-01-27T18:25:40.987Z,98318.16
2019-01-27T18:28:10.958Z,98313.84
2019-01-27T18:30:41.026Z,98315.38
2019-01-27T18:33:10.975Z,98317.16
2019-01-27T18:35:40.897Z,98317.31
2019-01-27T18:38:11.438Z,98313.27
2019-01-27T18:40:41.380Z,98312.56
2019-01-27T18:43:11.456Z,98319.66
2019-01-27T18:45:42.028Z,98313.64
2019-01-27T18:48:11.893Z,98321.94
2019-01-27T18:50:41.842Z,98319.28
2019-01-27T18:53:31.454Z,98316.34
2019-01-27T18:56:13.221Z,98312.42
2019-01-27T18:59:01.658Z,98321.12
2019-01-27T19:01:57.510Z,98315.16
2019-01-27T19:04:52.299Z,98318.33
2019-01-27T19:07:28.884Z,98310.73
2019-01-27T19:10:20.758Z,98316.63
2019-01-27T19:13:22.025Z,98315.16
2019-01-27T19:16:03.546Z,98317.09
2019-01-27T19:18:51.117Z,98321.16
2019-01-27T19:21:54.659Z,98321.27
2019-01-27T19:24:58.074Z,98318.98
2019-01-27T19:27:47.022Z,98322.53
2019-01-27T19:30:29.824Z,98321.66
2019-01-27T19:33:27.929Z,98323.17
2019-01-27T19:36:11.595Z,98331.16
2019-01-27T19:39:13.625Z,98336.41
2019-01-27T19:41:52.825Z,98330.26
2019-01-27T19:44:39.421Z,98337.78
2019-01-27T19:47:31.941Z,98337.28
2019-01-27T19:50:13.443Z,98337.27
2019-01-27T19:53:08.443Z,98337.36
2019-01-27T19:55:56.646Z,98337.52
2019-01-27T19:58:48.677Z,98331.14
2019-01-27T20:01:25.831Z,98334.86
2019-01-27T20:04:18.101Z,98333.18
2019-01-27T20:06:56.818Z,98334.48
2019-01-27T20:09:34.414Z,98337.02
2019-01-27T20:12:22.965Z,98337.99
2019-01-27T20:15:13.366Z,98343.93
2019-01-27T20:18:00.472Z,98335.77
2019-01-27T20:20:50.374Z,98334.79
2019-01-27T20:23:32.549Z,98339.23
2019-01-27T20:26:22.023Z,98336.21
2019-01-27T20:29:13.925Z,98334.02
2019-01-27T20:31:59.735Z,98342.77
2019-01-27T20:34:54.709Z,98340.34
2019-01-27T20:37:37.288Z,98344.05
2019-01-27T20:40:31.929Z,98343.08
2019-01-27T20:43:13.503Z,98353.09
2019-01-27T20:45:52.035Z,98341.94
2019-01-27T20:49:00.562Z,98339.44
2019-01-27T20:51:36.779Z,98342.37
2019-01-27T20:54:18.129Z,98336.95
2019-01-27T20:57:05.888Z,98344.20
2019-01-27T21:00:01.719Z,98339.75
2019-01-27T21:02:51.233Z,98341.48
2019-01-27T21:05:46.835Z,98348.72
2019-01-27T21:08:30.372Z,98350.62
2019-01-27T21:11:26.060Z,98353.03
2019-01-27T21:14:14.946Z,98353.51
2019-01-27T21:16:56.417Z,98352.44
2019-01-27T21:19:51.181Z,98346.07
2019-01-27T21:22:23.946Z,98357.17
2019-01-27T21:24:55.190Z,98352.50
2019-01-27T21:27:26.069Z,98355.95
2019-01-27T21:29:56.621Z,98356.19
2019-01-27T21:32:27.519Z,98357.23
2019-01-27T21:34:58.318Z,98356.96
2019-01-27T21:37:28.856Z,98350.84
2019-01-27T21:39:59.487Z,98359.28
2019-01-27T21:42:30.339Z,98360.37
2019-01-27T21:45:01.195Z,98356.67
2019-01-27T21:47:31.506Z,98355.95
2019-01-27T21:50:01.784Z,98366.22
2019-01-27T21:52:32.750Z,98363.72
2019-01-27T21:55:03.555Z,98369.91
2019-01-27T21:57:33.458Z,98363.54
2019-01-27T22:00:03.710Z,98364.30
2019-01-27T22:02:34.974Z,98367.77
2019-01-27T22:05:07.030Z,98357.38
2019-01-27T22:07:38.443Z,98363.92
2019-01-27T22:10:11.673Z,98361.15
2019-01-27T22:12:43.573Z,98368.09
2019-01-27T22:15:14.149Z,98366.44
2019-01-27T22:17:45.995Z,98364.63
2019-01-27T22:20:18.931Z,98366.11
2019-01-27T22:22:49.903Z,98367.77
2019-01-27T22:25:21.289Z,98367.25
2019-01-27T22:27:52.667Z,98367.00
2019-01-27T22:30:22.975Z,98368.18
2019-01-27T22:32:55.303Z,98373.62
2019-01-27T22:35:26.287Z,98368.86
2019-01-27T22:38:00.719Z,98370.39
2019-01-27T22:40:31.608Z,98373.38
2019-01-27T22:43:01.651Z,98375.55
2019-01-27T22:45:31.867Z,98381.17
2019-01-27T22:48:02.924Z,98384.31
2019-01-27T22:50:33.249Z,98382.08
2019-01-27T22:53:04.398Z,98385.16
2019-01-27T22:55:34.410Z,98389.20
2019-01-27T22:58:06.204Z,98390.48
2019-01-27T23:01:01.527Z,98389.34
2019-01-27T23:03:44.135Z,98393.84
2019-01-27T23:06:14.364Z,98388.70
2019-01-27T23:08:44.869Z,98390.37
2019-01-27T23:11:15.190Z,98387.09
2019-01-27T23:13:45.481Z,98385.16
2019-01-27T23:16:15.771Z,98392.92
2019-01-27T23:18:46.555Z,98395.09
2019-01-27T23:21:16.920Z,98392.55
2019-01-27T23:23:46.821Z,98395.56
2019-01-27T23:26:16.715Z,98399.02
2019-01-27T23:28:46.911Z,98397.23
2019-01-27T23:31:17.080Z,98390.48
2019-01-27T23:33:47.034Z,98398.13
2019-01-27T23:36:17.086Z,98391.52
2019-01-27T23:38:46.983Z,98401.20
2019-01-27T23:41:16.906Z,98396.77
2019-01-27T23:43:46.777Z,98406.59
2019-01-27T23:46:16.665Z,98401.37
2019-01-27T23:48:46.595Z,98400.31
2019-01-27T23:51:16.551Z,98404.20
2019-01-27T23:53:46.473Z,98411.14
2019-01-27T23:56:16.731Z,98407.67
2019-01-27T23:58:46.954Z,98411.06
